createdAt,value
2018-07-19T00:02:13.282Z,6.67
2018-07-19T00:04:41.407Z,6.67
2018-07-19T00:07:09.872Z,5.77
2018-07-19T00:09:38.322Z,6.50
2018-07-19T00:12:07.145Z,6.00
2018-07-19T00:14:35.611Z,6.40
2018-07-19T00:17:04.062Z,6.23
2018-07-19T00:19:32.545Z,6.03
2018-07-19T00:22:01.013Z,7.23
2018-07-19T00:24:29.119Z,5.87
2018-07-19T00:26:57.612Z,6.73
2018-07-19T00:29:26.915Z,6.10
2018-07-19T00:31:55.381Z,6.40
2018-07-19T00:34:23.863Z,7.27
2018-07-19T00:36:52.328Z,6.60
2018-07-19T00:39:20.824Z,6.70
2018-07-19T00:41:49.262Z,7.60
2018-07-19T00:44:18.558Z,7.17
2018-07-19T00:46:47.120Z,7.17
2018-07-19T00:49:15.629Z,6.40
2018-07-19T00:51:44.084Z,6.70
2018-07-19T00:54:12.562Z,7.33
2018-07-19T00:56:41.020Z,6.00
2018-07-19T00:59:09.475Z,6.27
2018-07-19T01:01:37.946Z,5.57
2018-07-19T01:04:06.742Z,6.57
2018-07-19T01:06:35.203Z,6.83
2018-07-19T01:09:05.630Z,6.20
2018-07-19T01:11:34.062Z,6.77
2018-07-19T01:14:02.529Z,5.97
2018-07-19T01:16:30.979Z,5.87
2018-07-19T01:18:59.462Z,6.63
2018-07-19T01:21:27.909Z,6.90
2018-07-19T01:23:56.396Z,6.60
2018-07-19T01:26:24.879Z,6.93
2018-07-19T01:28:53.541Z,6.20
2018-07-19T01:31:21.985Z,7.00
2018-07-19T01:33:50.445Z,5.73
2018-07-19T01:36:18.926Z,6.97
2018-07-19T01:38:47.419Z,6.73
2018-07-19T01:41:31.877Z,7.20
2018-07-19T01:44:00.033Z,8.07
2018-07-19T01:46:28.484Z,7.60
2018-07-19T01:48:56.927Z,6.60
2018-07-19T01:51:25.425Z,7.37
2018-07-19T01:53:54.887Z,7.13
2018-07-19T01:56:23.376Z,6.80
2018-07-19T01:58:51.935Z,7.70
2018-07-19T02:01:20.419Z,7.67
2018-07-19T02:03:48.868Z,7.67
2018-07-19T02:06:17.366Z,7.80
2018-07-19T02:08:45.820Z,9.03
2018-07-19T02:11:14.300Z,8.93
2018-07-19T02:13:42.727Z,7.70
2018-07-19T02:16:11.187Z,6.93
2018-07-19T02:18:39.649Z,7.23
2018-07-19T02:21:08.166Z,8.23
2018-07-19T02:23:36.647Z,8.27
2018-07-19T02:26:05.096Z,7.53
2018-07-19T02:28:33.556Z,7.37
2018-07-19T02:31:01.993Z,8.43
2018-07-19T02:33:30.457Z,7.60
2018-07-19T02:35:58.913Z,7.83
2018-07-19T02:38:27.376Z,8.10
2018-07-19T02:40:55.872Z,8.90
2018-07-19T02:43:24.339Z,7.57
2018-07-19T02:45:52.843Z,7.70
2018-07-19T02:48:21.316Z,7.63
2018-07-19T02:50:49.805Z,7.83
2018-07-19T02:53:18.280Z,7.03
2018-07-19T02:55:46.780Z,7.17
2018-07-19T02:58:15.214Z,8.30
2018-07-19T03:00:43.690Z,7.90
2018-07-19T03:03:12.159Z,7.70
2018-07-19T03:05:40.600Z,7.53
2018-07-19T03:08:09.228Z,8.80
2018-07-19T03:10:37.690Z,8.83
2018-07-19T03:13:06.144Z,8.00
2018-07-19T03:15:34.588Z,7.07
2018-07-19T03:18:03.076Z,8.30
2018-07-19T03:20:31.560Z,8.10
2018-07-19T03:23:00.046Z,7.97
2018-07-19T03:25:28.494Z,7.30
2018-07-19T03:27:57.005Z,7.93
2018-07-19T03:30:25.482Z,7.73
2018-07-19T03:32:53.969Z,8.57
2018-07-19T03:35:22.416Z,7.70
2018-07-19T03:37:50.904Z,7.10
2018-07-19T03:40:19.464Z,8.20
2018-07-19T03:42:47.967Z,8.23
2018-07-19T03:45:16.467Z,8.57
2018-07-19T03:47:44.904Z,8.27
2018-07-19T03:50:13.414Z,8.37
2018-07-19T03:52:41.871Z,9.33
2018-07-19T03:55:10.348Z,9.23
2018-07-19T03:57:38.815Z,8.70
2018-07-19T04:00:07.376Z,8.80
2018-07-19T04:02:35.816Z,9.53
2018-07-19T04:05:04.292Z,9.27
2018-07-19T04:07:32.753Z,9.60
2018-07-19T04:10:01.221Z,9.70
2018-07-19T04:12:29.712Z,10.10
2018-07-19T04:16:01.384Z,9.60
2018-07-19T04:18:30.841Z,10.43
2018-07-19T04:20:59.309Z,9.33
2018-07-19T04:23:27.753Z,8.53
2018-07-19T04:25:56.751Z,9.43
2018-07-19T04:28:25.206Z,9.80
2018-07-19T04:30:53.672Z,8.70
2018-07-19T04:33:22.127Z,9.40
2018-07-19T04:35:50.620Z,9.90
2018-07-19T04:38:19.126Z,9.50
2018-07-19T04:40:47.578Z,9.90
2018-07-19T04:43:16.593Z,9.33
2018-07-19T04:45:45.066Z,10.13
2018-07-19T04:48:13.547Z,9.37
2018-07-19T04:50:42.033Z,9.10
2018-07-19T04:53:10.492Z,9.87
2018-07-19T04:55:39.010Z,10.07
2018-07-19T04:58:07.468Z,9.97
2018-07-19T05:00:35.948Z,10.50
2018-07-19T05:03:04.430Z,9.70
2018-07-19T05:05:32.945Z,10.13
2018-07-19T05:08:01.424Z,10.50
2018-07-19T05:10:29.875Z,10.13
2018-07-19T05:12:58.387Z,10.53
2018-07-19T05:15:26.832Z,10.43
2018-07-19T05:17:55.324Z,11.80
2018-07-19T05:20:23.821Z,10.40
2018-07-19T05:22:52.322Z,10.60
2018-07-19T05:25:20.780Z,12.10
2018-07-19T05:27:49.301Z,10.70
2018-07-19T05:30:17.789Z,11.87
2018-07-19T05:32:45.954Z,12.37
2018-07-19T05:35:14.451Z,11.67
2018-07-19T05:37:42.961Z,11.73
2018-07-19T05:40:11.444Z,12.10
2018-07-19T05:42:39.961Z,11.17
2018-07-19T05:45:08.522Z,13.20
2018-07-19T05:47:37.004Z,13.50
2018-07-19T05:50:05.573Z,12.80
2018-07-19T05:52:34.042Z,12.40
2018-07-19T05:55:03.199Z,13.10
2018-07-19T05:57:31.711Z,14.10
2018-07-19T06:00:00.225Z,13.63
2018-07-19T06:02:28.753Z,13.40
2018-07-19T06:04:57.224Z,13.90
2018-07-19T06:07:25.715Z,13.67
2018-07-19T06:09:54.230Z,12.53
2018-07-19T06:12:22.840Z,11.50
2018-07-19T06:14:51.295Z,12.60
2018-07-19T06:17:19.779Z,14.00
2018-07-19T06:19:48.256Z,12.80
2018-07-19T06:22:17.291Z,13.80
2018-07-19T06:24:45.869Z,15.00
2018-07-19T06:27:14.335Z,14.33
2018-07-19T06:29:46.332Z,13.27
2018-07-19T06:32:14.800Z,12.43
2018-07-19T06:34:43.295Z,11.40
2018-07-19T06:37:11.778Z,11.90
2018-07-19T06:39:40.295Z,13.00
2018-07-19T06:42:08.800Z,12.07
2018-07-19T06:44:37.300Z,13.00
2018-07-19T06:47:06.059Z,10.93
2018-07-19T06:49:34.574Z,12.27
2018-07-19T06:52:03.024Z,11.30
2018-07-19T06:54:31.500Z,11.83
2018-07-19T06:57:00.739Z,11.87
2018-07-19T06:59:29.220Z,13.00
2018-07-19T07:01:57.689Z,13.00
2018-07-19T07:04:26.871Z,13.50
2018-07-19T07:06:55.464Z,13.23
2018-07-19T07:09:23.933Z,12.00
2018-07-19T07:11:52.432Z,13.30
2018-07-19T07:14:20.918Z,13.10
2018-07-19T07:16:49.384Z,14.10
2018-07-19T07:19:17.544Z,13.10
2018-07-19T07:21:46.095Z,13.43
2018-07-19T07:24:14.567Z,12.60
2018-07-19T07:26:43.026Z,13.20
2018-07-19T07:29:11.484Z,13.80
2018-07-19T07:31:40.094Z,12.90
2018-07-19T07:34:08.639Z,11.93
2018-07-19T07:36:37.069Z,12.40
2018-07-19T07:39:08.237Z,11.57
2018-07-19T07:41:36.713Z,10.87
2018-07-19T07:44:05.395Z,11.77
2018-07-19T07:46:33.862Z,12.00
2018-07-19T07:49:02.360Z,12.53
2018-07-19T07:51:30.845Z,11.70
2018-07-19T07:53:59.325Z,11.70
2018-07-19T07:56:27.845Z,10.57
2018-07-19T07:58:56.299Z,11.17
2018-07-19T08:01:24.780Z,11.83
2018-07-19T08:03:53.300Z,11.77
2018-07-19T08:06:21.778Z,11.53
2018-07-19T08:08:50.302Z,11.53
2018-07-19T08:11:18.799Z,12.43
2018-07-19T08:13:47.295Z,12.53
2018-07-19T08:16:15.768Z,11.53
2018-07-19T08:18:44.291Z,12.20
2018-07-19T08:21:12.801Z,12.00
2018-07-19T08:23:41.313Z,12.90
2018-07-19T08:26:09.838Z,11.90
2018-07-19T08:28:38.312Z,11.47
2018-07-19T08:31:06.792Z,13.60
2018-07-19T08:33:35.322Z,11.80
2018-07-19T08:36:04.157Z,11.97
2018-07-19T08:38:32.303Z,11.83
2018-07-19T08:41:00.776Z,10.83
2018-07-19T08:43:29.240Z,12.77
2018-07-19T08:45:58.424Z,12.27
2018-07-19T08:48:26.899Z,12.80
2018-07-19T08:50:55.405Z,12.80
2018-07-19T08:53:23.865Z,13.77
2018-07-19T08:55:52.368Z,12.50
2018-07-19T08:58:20.878Z,12.40
2018-07-19T09:00:49.358Z,14.30
2018-07-19T09:03:17.852Z,14.23
2018-07-19T09:05:46.350Z,14.73
2018-07-19T09:08:14.835Z,12.70
2018-07-19T09:10:43.339Z,12.47
2018-07-19T09:13:11.858Z,13.03
2018-07-19T09:15:40.344Z,13.17
2018-07-19T09:18:08.894Z,13.37
2018-07-19T09:20:37.356Z,13.70
2018-07-19T09:23:05.921Z,12.40
2018-07-19T09:25:34.391Z,11.83
2018-07-19T09:28:02.880Z,10.60
2018-07-19T09:30:31.363Z,11.83
2018-07-19T09:32:59.901Z,13.30
2018-07-19T09:35:28.356Z,11.50
2018-07-19T09:37:56.830Z,9.73
2018-07-19T09:40:24.998Z,10.30
2018-07-19T09:42:53.784Z,9.97
2018-07-19T09:45:22.276Z,11.90
2018-07-19T09:47:50.767Z,12.13
2018-07-19T09:50:19.276Z,10.80
2018-07-19T09:52:47.756Z,10.77
2018-07-19T09:55:16.272Z,12.33
2018-07-19T09:57:44.733Z,9.27
2018-07-19T10:00:13.357Z,11.03
2018-07-19T10:02:41.815Z,9.80
2018-07-19T10:05:10.001Z,8.23
2018-07-19T10:07:38.482Z,10.73
2018-07-19T10:10:07.025Z,9.80
2018-07-19T10:12:35.471Z,8.90
2018-07-19T10:15:04.087Z,6.63
2018-07-19T10:17:32.560Z,6.87
2018-07-19T10:20:01.008Z,6.50
2018-07-19T10:22:29.506Z,6.43
2018-07-19T10:24:57.963Z,9.10
2018-07-19T10:27:29.481Z,9.20
2018-07-19T10:29:57.608Z,8.80
2018-07-19T10:32:26.182Z,8.37
2018-07-19T10:34:54.543Z,7.20
2018-07-19T10:37:23.118Z,7.83
2018-07-19T10:39:51.581Z,6.33
2018-07-19T10:42:20.641Z,7.37
2018-07-19T10:44:49.104Z,6.53
2018-07-19T10:47:17.572Z,7.60
2018-07-19T10:49:46.057Z,7.23
2018-07-19T10:52:14.517Z,7.80
2018-07-19T10:54:43.020Z,7.37
2018-07-19T10:57:11.513Z,7.07
2018-07-19T10:59:39.977Z,7.40
2018-07-19T11:02:08.424Z,6.70
2018-07-19T11:04:36.964Z,7.20
2018-07-19T11:07:05.435Z,6.60
2018-07-19T11:09:33.905Z,7.47
2018-07-19T11:12:02.349Z,6.73
2018-07-19T11:14:30.815Z,8.70
2018-07-19T11:16:58.943Z,8.30
2018-07-19T11:19:27.422Z,10.07
2018-07-19T11:21:56.788Z,7.97
2018-07-19T11:24:25.223Z,7.40
2018-07-19T11:26:53.712Z,6.40
2018-07-19T11:29:22.173Z,6.40
2018-07-19T11:31:50.668Z,7.47
2018-07-19T11:34:19.117Z,5.73
2018-07-19T11:36:47.569Z,7.33
2018-07-19T11:39:15.998Z,6.80
2018-07-19T11:41:44.869Z,6.13
2018-07-19T11:44:13.313Z,7.43
2018-07-19T11:46:41.788Z,6.20
2018-07-19T11:49:11.191Z,7.63
2018-07-19T11:51:39.661Z,5.43
2018-07-19T11:54:08.145Z,7.30
2018-07-19T11:56:36.613Z,5.87
2018-07-19T11:59:05.080Z,8.23
2018-07-19T12:01:33.564Z,7.50
2018-07-19T12:04:01.715Z,7.37
2018-07-19T12:06:30.169Z,7.90
2018-07-19T12:08:58.628Z,6.90
2018-07-19T12:11:27.179Z,8.17
2018-07-19T12:13:55.431Z,7.00
2018-07-19T12:16:23.893Z,6.33
2018-07-19T12:18:52.364Z,6.77
2018-07-19T12:21:20.825Z,7.00
2018-07-19T12:23:49.301Z,6.43
2018-07-19T12:26:17.788Z,6.60
2018-07-19T12:28:46.260Z,7.10
2018-07-19T12:31:14.714Z,5.67
2018-07-19T12:33:43.195Z,7.00
2018-07-19T12:36:11.685Z,6.30
2018-07-19T12:38:40.128Z,6.47
2018-07-19T12:41:08.608Z,5.93
2018-07-19T12:43:37.121Z,5.80
2018-07-19T12:46:05.564Z,5.93
2018-07-19T12:48:34.043Z,6.90
2018-07-19T12:51:02.525Z,6.40
2018-07-19T12:53:31.051Z,6.90
2018-07-19T12:55:59.484Z,6.40
2018-07-19T12:58:27.949Z,6.27
2018-07-19T13:00:56.368Z,5.77
2018-07-19T13:03:24.882Z,6.30
2018-07-19T13:05:53.321Z,6.83
2018-07-19T13:08:24.712Z,5.73
2018-07-19T13:10:53.179Z,6.27
2018-07-19T13:13:22.347Z,5.73
2018-07-19T13:15:50.870Z,5.80
2018-07-19T13:18:19.361Z,5.77
2018-07-19T13:20:47.843Z,5.77
2018-07-19T13:23:16.296Z,6.00
2018-07-19T13:25:44.778Z,5.53
2018-07-19T13:28:13.220Z,5.33
2018-07-19T13:30:41.696Z,5.50
2018-07-19T13:33:10.187Z,6.37
2018-07-19T13:35:38.692Z,6.43
2018-07-19T13:38:07.137Z,6.00
2018-07-19T13:40:35.673Z,6.13
2018-07-19T13:43:04.121Z,6.63
2018-07-19T13:45:32.607Z,5.70
2018-07-19T13:48:01.032Z,5.60
2018-07-19T13:50:29.486Z,5.50
2018-07-19T13:53:09.319Z,5.40
2018-07-19T13:55:37.776Z,5.20
2018-07-19T13:58:06.272Z,5.23
2018-07-19T14:00:34.735Z,5.23
2018-07-19T14:03:03.184Z,5.40
2018-07-19T14:05:31.304Z,5.10
2018-07-19T14:07:59.773Z,5.40
2018-07-19T14:10:28.193Z,5.40
2018-07-19T14:12:56.685Z,5.60
2018-07-19T14:15:25.179Z,5.27
2018-07-19T14:17:53.614Z,5.33
2018-07-19T14:20:22.101Z,4.97
2018-07-19T14:22:50.533Z,5.37
2018-07-19T14:25:19.016Z,5.70
2018-07-19T14:27:47.452Z,5.03
2018-07-19T14:30:15.933Z,5.03
2018-07-19T14:32:44.360Z,4.97
2018-07-19T14:35:12.852Z,4.60
2018-07-19T14:37:41.286Z,4.90
2018-07-19T14:40:09.725Z,5.20
2018-07-19T14:42:38.181Z,5.57
2018-07-19T14:45:06.698Z,4.63
2018-07-19T14:47:35.152Z,5.37
2018-07-19T14:50:03.900Z,5.33
2018-07-19T14:52:32.008Z,4.57
2018-07-19T14:55:00.499Z,4.50
2018-07-19T14:57:28.942Z,4.60
2018-07-19T14:59:58.360Z,4.40
2018-07-19T15:02:26.867Z,4.33
2018-07-19T15:04:56.158Z,4.27
2018-07-19T15:07:24.669Z,4.20
2018-07-19T15:09:53.057Z,4.20
2018-07-19T15:12:21.538Z,4.77
2018-07-19T15:14:49.957Z,4.60
2018-07-19T15:17:18.420Z,5.10
2018-07-19T15:19:46.863Z,4.63
2018-07-19T15:22:15.281Z,4.90
2018-07-19T15:24:43.978Z,4.80
2018-07-19T15:27:12.728Z,4.73
2018-07-19T15:29:40.872Z,4.63
2018-07-19T15:32:09.662Z,4.57
2018-07-19T15:34:38.138Z,4.70
2018-07-19T15:37:06.628Z,4.70
2018-07-19T15:39:35.112Z,4.40
2018-07-19T15:42:03.584Z,4.30
2018-07-19T15:44:31.992Z,4.40
2018-07-19T15:47:00.463Z,4.10
2018-07-19T15:49:28.573Z,3.90
2018-07-19T15:51:57.004Z,4.30
2018-07-19T15:54:25.469Z,4.13
2018-07-19T15:56:53.915Z,4.83
2018-07-19T15:59:22.380Z,4.70
2018-07-19T16:01:50.851Z,4.20
2018-07-19T16:04:19.308Z,4.40
2018-07-19T16:06:47.488Z,4.20
2018-07-19T16:09:15.914Z,3.93
2018-07-19T16:11:44.353Z,4.90
2018-07-19T16:14:12.828Z,4.80
2018-07-19T16:16:41.268Z,4.10
2018-07-19T16:19:09.706Z,4.20
2018-07-19T16:21:38.186Z,4.10
2018-07-19T16:24:06.965Z,4.80
2018-07-19T16:26:35.408Z,3.67
2018-07-19T16:29:03.833Z,4.20
2018-07-19T16:31:32.328Z,4.37
2018-07-19T16:34:00.798Z,4.03
2018-07-19T16:36:29.234Z,4.17
2018-07-19T16:38:57.352Z,4.30
2018-07-19T16:41:25.782Z,3.90
2018-07-19T16:43:55.104Z,3.70
2018-07-19T16:46:23.530Z,4.50
2018-07-19T16:48:51.985Z,3.60
2018-07-19T16:51:20.435Z,4.50
2018-07-19T16:53:48.906Z,4.27
2018-07-19T16:56:17.332Z,4.63
2018-07-19T16:58:45.802Z,4.10
2018-07-19T17:01:14.252Z,4.20
2018-07-19T17:03:42.705Z,3.80
2018-07-19T17:06:11.156Z,3.90
2018-07-19T17:08:39.642Z,4.00
2018-07-19T17:11:08.105Z,3.97
2018-07-19T17:13:36.545Z,3.63
2018-07-19T17:16:05.008Z,3.70
2018-07-19T17:18:33.589Z,4.40
2018-07-19T17:21:02.056Z,3.27
2018-07-19T17:23:30.504Z,3.80
2018-07-19T17:25:58.971Z,4.43
2018-07-19T17:28:27.418Z,3.37
2018-07-19T17:30:55.555Z,3.70
2018-07-19T17:33:24.040Z,4.00
2018-07-19T17:35:52.861Z,4.33
2018-07-19T17:38:21.297Z,4.30
2018-07-19T17:40:49.808Z,3.93
2018-07-19T17:43:18.253Z,4.23
2018-07-19T17:45:46.762Z,5.17
2018-07-19T17:48:15.217Z,4.40
2018-07-19T17:50:43.698Z,4.20
2018-07-19T17:53:12.151Z,4.83
2018-07-19T17:55:40.622Z,5.10
2018-07-19T17:58:09.204Z,4.90
2018-07-19T18:00:37.664Z,3.93
2018-07-19T18:03:06.164Z,4.37
2018-07-19T18:05:34.688Z,4.77
2018-07-19T18:08:03.313Z,4.23
2018-07-19T18:10:31.795Z,4.90
2018-07-19T18:13:00.236Z,4.93
2018-07-19T18:15:28.654Z,4.73
2018-07-19T18:17:57.255Z,4.67
2018-07-19T18:20:25.697Z,4.60
2018-07-19T18:22:54.154Z,4.83
2018-07-19T18:25:22.607Z,4.30
2018-07-19T18:27:51.077Z,5.30
2018-07-19T18:30:19.548Z,4.70
2018-07-19T18:32:48.040Z,4.40
2018-07-19T18:35:16.468Z,5.60
2018-07-19T18:37:48.241Z,5.97
2018-07-19T18:40:16.660Z,4.77
2018-07-19T18:42:45.093Z,5.07
2018-07-19T18:45:13.564Z,5.10
2018-07-19T18:47:41.679Z,5.17
2018-07-19T18:50:10.169Z,5.00
2018-07-19T18:52:38.596Z,5.20
2018-07-19T18:55:06.730Z,4.43
2018-07-19T18:57:35.152Z,4.67
2018-07-19T19:00:03.754Z,5.40
2018-07-19T19:02:32.212Z,4.80
2018-07-19T19:05:00.720Z,4.80
2018-07-19T19:07:29.202Z,5.00
2018-07-19T19:09:57.654Z,5.13
2018-07-19T19:12:26.183Z,6.20
2018-07-19T19:14:54.645Z,5.60
2018-07-19T19:17:23.118Z,5.10
2018-07-19T19:19:51.585Z,4.60
2018-07-19T19:22:20.113Z,6.20
2018-07-19T19:24:48.548Z,5.50
2018-07-19T19:27:16.996Z,6.10
2018-07-19T19:29:45.501Z,5.07
2018-07-19T19:32:13.948Z,4.73
2018-07-19T19:34:42.433Z,4.90
2018-07-19T19:37:10.896Z,5.37
2018-07-19T19:39:39.440Z,5.93
2018-07-19T19:42:09.141Z,5.07
2018-07-19T19:44:37.624Z,6.00
2018-07-19T19:47:06.079Z,5.00
2018-07-19T19:49:34.520Z,4.93
2018-07-19T19:52:03.068Z,5.30
2018-07-19T19:54:31.515Z,5.40
2018-07-19T19:57:00.023Z,4.87
2018-07-19T19:59:28.460Z,5.33
2018-07-19T20:01:56.945Z,7.20
2018-07-19T20:04:25.372Z,4.70
2018-07-19T20:06:53.913Z,5.50
2018-07-19T20:09:22.468Z,5.90
2018-07-19T20:11:50.976Z,5.07
2018-07-19T20:14:19.461Z,5.00
2018-07-19T20:16:47.909Z,5.97
2018-07-19T20:19:16.388Z,5.43
2018-07-19T20:21:44.913Z,6.90
2018-07-19T20:24:13.341Z,6.17
2018-07-19T20:26:41.763Z,6.07
